Terminal Aerodrome Forecast
Issued by NWS Twin Cities, MN

Home | Current Version | Previous Version | Graphics & Text | Print | Product List | Glossary On
Versions: 1 2 3 4 5 6 7 8 9 10 11 12 13 14 15 16 17 18 19 20 21 22 23 24 25
000
FTUS43 KMPX 192337
TAFMSP
TAF
KMSP 192337Z 2000/2106 23005KT P6SM BKN250
     FM200300 27004KT P6SM BKN250
     FM200600 30004KT P6SM BKN250
     FM201000 29002KT 6SM BR SCT250
     FM201600 25003KT P6SM OVC100
     FM210000 28003KT P6SM OVC100=

USA.gov is the U.S. government's official web portal to all federal, state and local government web resources and services.